sensor_id;sensor_type;location;lat;lon;timestamp;P1;durP1;ratioP1;P2;durP2;ratioP2
61338;SDS011;47213;52.362;4.606;2023-07-29T00:02:18;9.50;;;1.70;;
61338;SDS011;47213;52.362;4.606;2023-07-29T00:07:18;6.60;;;1.60;;
61338;SDS011;47213;52.362;4.606;2023-07-29T00:12:18;6.60;;;1.60;;
61338;SDS011;47213;52.362;4.606;2023-07-29T00:22:18;5.70;;;1.80;;
61338;SDS011;47213;52.362;4.606;2023-07-29T00:32:18;6.40;;;1.60;;
61338;SDS011;47213;52.362;4.606;2023-07-29T00:37:18;6.40;;;1.80;;
61338;SDS011;47213;52.362;4.606;2023-07-29T00:42:18;6.40;;;1.80;;
61338;SDS011;47213;52.362;4.606;2023-07-29T00:52:18;7.90;;;1.90;;
61338;SDS011;47213;52.362;4.606;2023-07-29T00:57:19;7.50;;;1.90;;
61338;SDS011;47213;52.362;4.606;2023-07-29T01:02:18;7.50;;;1.90;;
61338;SDS011;47213;52.362;4.606;2023-07-29T01:07:27;8.50;;;2.00;;
61338;SDS011;47213;52.362;4.606;2023-07-29T01:12:22;8.50;;;2.00;;
61338;SDS011;47213;52.362;4.606;2023-07-29T01:17:32;7.90;;;1.80;;
61338;SDS011;47213;52.362;4.606;2023-07-29T01:22:19;7.90;;;1.80;;
61338;SDS011;47213;52.362;4.606;2023-07-29T01:52:18;8.20;;;2.30;;
61338;SDS011;47213;52.362;4.606;2023-07-29T01:57:18;9.90;;;2.70;;
61338;SDS011;47213;52.362;4.606;2023-07-29T02:07:19;8.00;;;2.10;;
61338;SDS011;47213;52.362;4.606;2023-07-29T02:12:20;8.00;;;2.10;;
61338;SDS011;47213;52.362;4.606;2023-07-29T02:17:18;9.60;;;2.30;;
61338;SDS011;47213;52.362;4.606;2023-07-29T02:22:18;9.60;;;2.30;;
61338;SDS011;47213;52.362;4.606;2023-07-29T02:32:19;9.30;;;2.20;;
61338;SDS011;47213;52.362;4.606;2023-07-29T02:42:18;8.40;;;2.00;;
61338;SDS011;47213;52.362;4.606;2023-07-29T02:47:18;8.00;;;1.90;;
61338;SDS011;47213;52.362;4.606;2023-07-29T02:57:18;9.70;;;2.40;;
61338;SDS011;47213;52.362;4.606;2023-07-29T03:12:18;8.50;;;2.00;;
61338;SDS011;47213;52.362;4.606;2023-07-29T03:17:18;9.60;;;2.40;;
61338;SDS011;47213;52.362;4.606;2023-07-29T03:22:18;9.60;;;2.40;;
61338;SDS011;47213;52.362;4.606;2023-07-29T03:27:18;12.20;;;2.50;;
61338;SDS011;47213;52.362;4.606;2023-07-29T03:32:19;12.20;;;2.50;;
61338;SDS011;47213;52.362;4.606;2023-07-29T03:42:18;9.10;;;2.20;;
61338;SDS011;47213;52.362;4.606;2023-07-29T03:47:19;8.10;;;2.10;;
61338;SDS011;47213;52.362;4.606;2023-07-29T04:02:19;11.60;;;2.30;;
61338;SDS011;47213;52.362;4.606;2023-07-29T04:07:19;7.30;;;2.00;;
61338;SDS011;47213;52.362;4.606;2023-07-29T04:17:19;8.00;;;2.00;;
61338;SDS011;47213;52.362;4.606;2023-07-29T04:27:19;7.70;;;2.00;;
61338;SDS011;47213;52.362;4.606;2023-07-29T04:32:19;7.70;;;2.00;;
61338;SDS011;47213;52.362;4.606;2023-07-29T04:52:19;8.10;;;2.10;;
61338;SDS011;47213;52.362;4.606;2023-07-29T04:57:19;8.50;;;2.20;;
61338;SDS011;47213;52.362;4.606;2023-07-29T05:07:19;8.70;;;2.10;;
61338;SDS011;47213;52.362;4.606;2023-07-29T05:12:19;8.70;;;2.10;;
61338;SDS011;47213;52.362;4.606;2023-07-29T05:22:19;8.30;;;2.00;;
61338;SDS011;47213;52.362;4.606;2023-07-29T05:27:19;11.30;;;2.30;;
61338;SDS011;47213;52.362;4.606;2023-07-29T05:32:19;11.30;;;2.30;;
61338;SDS011;47213;52.362;4.606;2023-07-29T05:42:19;8.70;;;2.20;;
61338;SDS011;47213;52.362;4.606;2023-07-29T05:47:19;8.70;;;2.20;;
61338;SDS011;47213;52.362;4.606;2023-07-29T05:57:19;11.80;;;2.60;;
61338;SDS011;47213;52.362;4.606;2023-07-29T06:02:19;11.20;;;2.20;;
61338;SDS011;47213;52.362;4.606;2023-07-29T06:07:19;11.20;;;2.20;;
61338;SDS011;47213;52.362;4.606;2023-07-29T06:17:19;9.40;;;2.00;;
61338;SDS011;47213;52.362;4.606;2023-07-29T06:47:19;7.80;;;1.90;;
61338;SDS011;47213;52.362;4.606;2023-07-29T06:52:19;6.80;;;1.80;;
61338;SDS011;47213;52.362;4.606;2023-07-29T06:57:19;6.80;;;1.80;;
61338;SDS011;47213;52.362;4.606;2023-07-29T07:12:19;8.10;;;1.80;;
61338;SDS011;47213;52.362;4.606;2023-07-29T07:17:19;8.10;;;1.80;;
61338;SDS011;47213;52.362;4.606;2023-07-29T07:22:19;6.60;;;1.70;;
61338;SDS011;47213;52.362;4.606;2023-07-29T07:27:19;6.60;;;1.70;;
61338;SDS011;47213;52.362;4.606;2023-07-29T07:42:19;7.60;;;1.60;;
61338;SDS011;47213;52.362;4.606;2023-07-29T07:47:19;7.60;;;1.60;;
61338;SDS011;47213;52.362;4.606;2023-07-29T07:52:19;9.40;;;2.10;;
61338;SDS011;47213;52.362;4.606;2023-07-29T07:57:21;9.40;;;2.10;;
61338;SDS011;47213;52.362;4.606;2023-07-29T08:07:19;9.40;;;2.10;;
61338;SDS011;47213;52.362;4.606;2023-07-29T08:12:19;7.30;;;1.90;;
61338;SDS011;47213;52.362;4.606;2023-07-29T08:17:19;7.30;;;1.90;;
61338;SDS011;47213;52.362;4.606;2023-07-29T08:27:19;11.00;;;2.60;;
61338;SDS011;47213;52.362;4.606;2023-07-29T08:32:19;9.60;;;2.40;;
61338;SDS011;47213;52.362;4.606;2023-07-29T08:37:19;9.60;;;2.40;;
61338;SDS011;47213;52.362;4.606;2023-07-29T08:42:20;10.50;;;2.50;;
61338;SDS011;47213;52.362;4.606;2023-07-29T08:52:20;9.00;;;2.50;;
61338;SDS011;47213;52.362;4.606;2023-07-29T08:57:20;9.00;;;2.50;;
61338;SDS011;47213;52.362;4.606;2023-07-29T09:02:19;11.00;;;2.80;;
61338;SDS011;47213;52.362;4.606;2023-07-29T09:07:20;11.00;;;2.80;;
61338;SDS011;47213;52.362;4.606;2023-07-29T09:32:21;8.40;;;2.50;;
61338;SDS011;47213;52.362;4.606;2023-07-29T09:37:21;8.40;;;2.50;;
61338;SDS011;47213;52.362;4.606;2023-07-29T09:42:22;10.50;;;2.40;;
61338;SDS011;47213;52.362;4.606;2023-07-29T09:47:22;10.50;;;2.40;;
61338;SDS011;47213;52.362;4.606;2023-07-29T09:52:22;11.00;;;2.80;;
61338;SDS011;47213;52.362;4.606;2023-07-29T10:02:20;11.10;;;2.70;;
61338;SDS011;47213;52.362;4.606;2023-07-29T10:07:20;11.10;;;2.70;;
61338;SDS011;47213;52.362;4.606;2023-07-29T10:12:20;7.80;;;2.40;;
61338;SDS011;47213;52.362;4.606;2023-07-29T10:17:20;7.80;;;2.40;;
61338;SDS011;47213;52.362;4.606;2023-07-29T10:27:21;10.70;;;2.80;;
61338;SDS011;47213;52.362;4.606;2023-07-29T10:32:22;8.50;;;2.00;;
61338;SDS011;47213;52.362;4.606;2023-07-29T10:37:21;8.50;;;2.00;;
61338;SDS011;47213;52.362;4.606;2023-07-29T10:42:20;9.80;;;2.00;;
61338;SDS011;47213;52.362;4.606;2023-07-29T10:47:24;9.80;;;2.00;;
61338;SDS011;47213;52.362;4.606;2023-07-29T10:52:29;7.90;;;2.10;;
61338;SDS011;47213;52.362;4.606;2023-07-29T10:57:37;7.90;;;2.10;;
61338;SDS011;47213;52.362;4.606;2023-07-29T11:02:20;7.20;;;1.80;;
61338;SDS011;47213;52.362;4.606;2023-07-29T11:07:21;7.20;;;1.80;;
61338;SDS011;47213;52.362;4.606;2023-07-29T11:17:20;6.60;;;1.60;;
61338;SDS011;47213;52.362;4.606;2023-07-29T11:22:20;5.40;;;1.30;;
61338;SDS011;47213;52.362;4.606;2023-07-29T11:27:20;5.40;;;1.30;;
61338;SDS011;47213;52.362;4.606;2023-07-29T11:32:20;8.80;;;1.80;;
61338;SDS011;47213;52.362;4.606;2023-07-29T11:37:20;8.80;;;1.80;;
61338;SDS011;47213;52.362;4.606;2023-07-29T11:43:55;7.30;;;1.60;;
61338;SDS011;47213;52.362;4.606;2023-07-29T11:47:48;unavailable;;;unavailable;;
61338;SDS011;47213;52.362;4.606;2023-07-29T11:47:49;unavailable;;;1.60;;
61338;SDS011;47213;52.362;4.606;2023-07-29T11:52:20;5.10;;;1.20;;
61338;SDS011;47213;52.362;4.606;2023-07-29T11:57:20;5.10;;;1.20;;
61338;SDS011;47213;52.362;4.606;2023-07-29T12:02:20;4.10;;;1.20;;
61338;SDS011;47213;52.362;4.606;2023-07-29T12:07:20;4.10;;;1.20;;
61338;SDS011;47213;52.362;4.606;2023-07-29T12:12:22;5.30;;;1.10;;
61338;SDS011;47213;52.362;4.606;2023-07-29T12:17:20;5.30;;;1.10;;
61338;SDS011;47213;52.362;4.606;2023-07-29T12:22:20;2.80;;;0.80;;
61338;SDS011;47213;52.362;4.606;2023-07-29T12:27:21;2.80;;;0.80;;
61338;SDS011;47213;52.362;4.606;2023-07-29T12:32:20;5.40;;;0.90;;
61338;SDS011;47213;52.362;4.606;2023-07-29T12:37:30;5.40;;;0.90;;
61338;SDS011;47213;52.362;4.606;2023-07-29T12:52:20;2.80;;;0.70;;
61338;SDS011;47213;52.362;4.606;2023-07-29T12:57:20;2.80;;;0.70;;
61338;SDS011;47213;52.362;4.606;2023-07-29T13:02:20;3.40;;;0.80;;
61338;SDS011;47213;52.362;4.606;2023-07-29T13:07:20;3.40;;;0.80;;
61338;SDS011;47213;52.362;4.606;2023-07-29T13:12:20;3.20;;;0.70;;
61338;SDS011;47213;52.362;4.606;2023-07-29T13:17:21;3.20;;;0.70;;
61338;SDS011;47213;52.362;4.606;2023-07-29T13:22:20;4.00;;;0.90;;
61338;SDS011;47213;52.362;4.606;2023-07-29T13:27:20;4.00;;;0.90;;
61338;SDS011;47213;52.362;4.606;2023-07-29T13:32:20;5.50;;;1.30;;
61338;SDS011;47213;52.362;4.606;2023-07-29T13:37:20;5.50;;;1.30;;
61338;SDS011;47213;52.362;4.606;2023-07-29T13:42:20;6.60;;;1.40;;
61338;SDS011;47213;52.362;4.606;2023-07-29T13:47:20;6.60;;;1.40;;
61338;SDS011;47213;52.362;4.606;2023-07-29T13:52:20;5.10;;;1.40;;
61338;SDS011;47213;52.362;4.606;2023-07-29T14:02:20;4.30;;;1.30;;
61338;SDS011;47213;52.362;4.606;2023-07-29T14:12:20;4.30;;;1.30;;
61338;SDS011;47213;52.362;4.606;2023-07-29T14:17:20;4.30;;;1.30;;
61338;SDS011;47213;52.362;4.606;2023-07-29T14:22:20;3.90;;;1.20;;
61338;SDS011;47213;52.362;4.606;2023-07-29T14:27:20;3.90;;;1.20;;
61338;SDS011;47213;52.362;4.606;2023-07-29T14:32:20;4.60;;;1.50;;
61338;SDS011;47213;52.362;4.606;2023-07-29T14:37:20;4.60;;;1.50;;
61338;SDS011;47213;52.362;4.606;2023-07-29T14:42:20;5.40;;;1.50;;
61338;SDS011;47213;52.362;4.606;2023-07-29T14:47:20;5.40;;;1.50;;
61338;SDS011;47213;52.362;4.606;2023-07-29T14:57:20;8.40;;;1.90;;
61338;SDS011;47213;52.362;4.606;2023-07-29T15:07:20;7.90;;;2.10;;
61338;SDS011;47213;52.362;4.606;2023-07-29T15:12:20;7.70;;;1.90;;
61338;SDS011;47213;52.362;4.606;2023-07-29T15:17:20;7.70;;;1.90;;
61338;SDS011;47213;52.362;4.606;2023-07-29T15:22:20;8.30;;;2.30;;
61338;SDS011;47213;52.362;4.606;2023-07-29T15:27:20;8.30;;;2.30;;
61338;SDS011;47213;52.362;4.606;2023-07-29T15:37:20;6.80;;;2.10;;
61338;SDS011;47213;52.362;4.606;2023-07-29T15:42:21;5.90;;;1.80;;
61338;SDS011;47213;52.362;4.606;2023-07-29T15:47:21;5.90;;;1.80;;
61338;SDS011;47213;52.362;4.606;2023-07-29T15:52:20;7.80;;;2.10;;
61338;SDS011;47213;52.362;4.606;2023-07-29T15:57:20;7.80;;;2.10;;
61338;SDS011;47213;52.362;4.606;2023-07-29T16:02:20;7.80;;;1.90;;
61338;SDS011;47213;52.362;4.606;2023-07-29T16:17:21;7.10;;;2.00;;
61338;SDS011;47213;52.362;4.606;2023-07-29T16:27:21;9.20;;;2.40;;
61338;SDS011;47213;52.362;4.606;2023-07-29T16:32:21;8.00;;;2.40;;
61338;SDS011;47213;52.362;4.606;2023-07-29T16:37:21;8.00;;;2.40;;
61338;SDS011;47213;52.362;4.606;2023-07-29T16:42:21;10.40;;;2.50;;
61338;SDS011;47213;52.362;4.606;2023-07-29T16:57:21;11.80;;;2.30;;
61338;SDS011;47213;52.362;4.606;2023-07-29T17:02:21;11.40;;;2.50;;
61338;SDS011;47213;52.362;4.606;2023-07-29T17:12:21;14.50;;;2.90;;
61338;SDS011;47213;52.362;4.606;2023-07-29T17:22:21;14.40;;;3.50;;
61338;SDS011;47213;52.362;4.606;2023-07-29T17:27:21;14.40;;;3.50;;
61338;SDS011;47213;52.362;4.606;2023-07-29T17:42:21;15.50;;;3.60;;
61338;SDS011;47213;52.362;4.606;2023-07-29T17:47:21;15.50;;;3.60;;
61338;SDS011;47213;52.362;4.606;2023-07-29T17:52:21;17.30;;;3.80;;
61338;SDS011;47213;52.362;4.606;2023-07-29T17:57:21;17.30;;;3.80;;
61338;SDS011;47213;52.362;4.606;2023-07-29T18:02:21;17.40;;;4.00;;
61338;SDS011;47213;52.362;4.606;2023-07-29T18:07:21;17.40;;;4.00;;
61338;SDS011;47213;52.362;4.606;2023-07-29T18:12:21;18.40;;;4.20;;
61338;SDS011;47213;52.362;4.606;2023-07-29T18:22:21;20.50;;;4.20;;
61338;SDS011;47213;52.362;4.606;2023-07-29T18:27:21;20.50;;;4.20;;
61338;SDS011;47213;52.362;4.606;2023-07-29T18:37:21;17.40;;;3.90;;
61338;SDS011;47213;52.362;4.606;2023-07-29T18:42:21;21.80;;;4.70;;
61338;SDS011;47213;52.362;4.606;2023-07-29T18:52:21;20.00;;;4.60;;
61338;SDS011;47213;52.362;4.606;2023-07-29T18:57:21;20.00;;;4.60;;
61338;SDS011;47213;52.362;4.606;2023-07-29T19:02:21;19.30;;;4.30;;
61338;SDS011;47213;52.362;4.606;2023-07-29T19:12:21;20.30;;;4.20;;
61338;SDS011;47213;52.362;4.606;2023-07-29T19:22:21;20.60;;;4.40;;
61338;SDS011;47213;52.362;4.606;2023-07-29T19:32:21;21.30;;;4.50;;
61338;SDS011;47213;52.362;4.606;2023-07-29T19:42:21;22.60;;;4.80;;
61338;SDS011;47213;52.362;4.606;2023-07-29T19:47:21;22.60;;;4.80;;
61338;SDS011;47213;52.362;4.606;2023-07-29T19:52:21;19.30;;;4.60;;
61338;SDS011;47213;52.362;4.606;2023-07-29T19:57:21;19.30;;;4.60;;
61338;SDS011;47213;52.362;4.606;2023-07-29T20:07:21;23.90;;;5.10;;
61338;SDS011;47213;52.362;4.606;2023-07-29T20:11:02;unavailable;;;unavailable;;
61338;SDS011;47213;52.362;4.606;2023-07-29T20:18:13;27.20;;;5.30;;
61338;SDS011;47213;52.362;4.606;2023-07-29T20:22:21;20.50;;;4.90;;
61338;SDS011;47213;52.362;4.606;2023-07-29T20:27:21;20.50;;;4.90;;
61338;SDS011;47213;52.362;4.606;2023-07-29T20:32:21;23.50;;;4.90;;
61338;SDS011;47213;52.362;4.606;2023-07-29T20:37:21;23.50;;;4.90;;
61338;SDS011;47213;52.362;4.606;2023-07-29T20:52:21;28.30;;;5.30;;
61338;SDS011;47213;52.362;4.606;2023-07-29T20:57:21;28.30;;;5.30;;
61338;SDS011;47213;52.362;4.606;2023-07-29T21:07:21;25.90;;;5.20;;
61338;SDS011;47213;52.362;4.606;2023-07-29T21:17:21;23.80;;;5.20;;
61338;SDS011;47213;52.362;4.606;2023-07-29T21:22:21;24.60;;;5.00;;
61338;SDS011;47213;52.362;4.606;2023-07-29T21:27:21;24.60;;;5.00;;
61338;SDS011;47213;52.362;4.606;2023-07-29T21:32:21;19.60;;;4.70;;
61338;SDS011;47213;52.362;4.606;2023-07-29T21:37:21;19.60;;;4.70;;
61338;SDS011;47213;52.362;4.606;2023-07-29T21:42:21;22.10;;;5.00;;
61338;SDS011;47213;52.362;4.606;2023-07-29T21:47:21;22.10;;;5.00;;
61338;SDS011;47213;52.362;4.606;2023-07-29T21:52:22;20.30;;;4.70;;
61338;SDS011;47213;52.362;4.606;2023-07-29T21:57:22;20.30;;;4.70;;
61338;SDS011;47213;52.362;4.606;2023-07-29T22:02:22;22.00;;;5.00;;
61338;SDS011;47213;52.362;4.606;2023-07-29T22:12:21;25.40;;;5.30;;
61338;SDS011;47213;52.362;4.606;2023-07-29T22:17:22;25.40;;;5.30;;
61338;SDS011;47213;52.362;4.606;2023-07-29T22:22:22;24.10;;;4.70;;
61338;SDS011;47213;52.362;4.606;2023-07-29T22:42:22;24.60;;;5.10;;
61338;SDS011;47213;52.362;4.606;2023-07-29T22:47:22;24.60;;;5.10;;
61338;SDS011;47213;52.362;4.606;2023-07-29T22:52:22;25.00;;;4.90;;
61338;SDS011;47213;52.362;4.606;2023-07-29T23:12:22;28.40;;;5.40;;
61338;SDS011;47213;52.362;4.606;2023-07-29T23:22:22;21.70;;;4.60;;
61338;SDS011;47213;52.362;4.606;2023-07-29T23:32:22;21.50;;;4.50;;
61338;SDS011;47213;52.362;4.606;2023-07-29T23:52:22;25.20;;;5.00;;
